Time;durP1;ratioP1;P1;durP2;ratioP2;P2;SDS_P1;SDS_P2;PMS_P1;PMS_P2;Temp;Humidity;BMP_temperature;BMP_pressure;BME280_temperature;BME280_humidity;BME280_pressure;Samples;Min_cycle;Max_cycle;Signal;HPM_P1;HPM_P2
2022/07/15 00:04:01;;;;;;;2.00;1.80;;;;;;;20.37;62.43;96982.31;10429814;28;20046;-48
2022/07/15 00:10:13;;;;;;;2.42;1.95;;;;;;;20.35;62.39;96977.22;10440407;28;20060;-48
2022/07/15 00:15:00;;;;;;;2.03;1.83;;;;;;;20.37;62.30;96985.03;10421385;28;20049;-46
2022/07/15 00:20:21;;;;;;;1.80;1.70;;;;;;;20.35;62.40;96988.84;10426937;28;20049;-45
2022/07/15 00:25:40;;;;;;;1.70;1.60;;;;;;;20.35;62.36;96982.66;10401487;28;20049;-48
2022/07/15 00:30:59;;;;;;;2.63;1.70;;;;;;;20.34;62.40;96987.25;10449018;28;20041;-47
2022/07/15 00:36:19;;;;;;;1.88;1.77;;;;;;;20.34;62.24;96998.06;10439544;28;20054;-47
2022/07/15 00:41:39;;;;;;;1.80;1.70;;;;;;;20.37;62.23;96998.56;10400729;28;20057;-45
2022/07/15 00:47:00;;;;;;;1.73;1.60;;;;;;;20.34;62.15;97003.47;10435325;28;20049;-47
2022/07/15 00:52:19;;;;;;;1.77;1.67;;;;;;;20.34;62.14;96995.34;10453514;28;20049;-46
2022/07/15 00:57:44;;;;;;;2.13;1.73;;;;;;;20.34;62.04;97000.75;10436184;28;20043;-47
2022/07/15 01:03:04;;;;;;;2.20;1.67;;;;;;;20.34;62.03;97000.75;10412461;28;20114;-47
2022/07/15 01:08:24;;;;;;;1.88;1.77;;;;;;;20.33;62.02;96998.41;10423012;28;20092;-47
2022/07/15 01:13:44;;;;;;;1.67;1.58;;;;;;;20.33;61.95;97004.59;10406066;28;20100;-45
2022/07/15 01:19:04;;;;;;;1.98;1.52;;;;;;;20.34;61.91;97008.09;10392529;28;20065;-47
2022/07/15 01:24:33;;;;;;;1.60;1.50;;;;;;;20.33;62.00;97004.59;10392545;28;20409;-46
2022/07/15 01:30:03;;;;;;;1.40;1.27;;;;;;;20.32;61.77;97008.41;10420098;28;20115;-46
2022/07/15 01:35:23;;;;;;;1.50;1.40;;;;;;;20.32;61.67;97013.81;10420228;28;20057;-46
2022/07/15 01:40:43;;;;;;;1.75;1.45;;;;;;;20.32;61.76;97008.41;10396242;28;20061;-46
2022/07/15 01:46:04;;;;;;;1.60;1.50;;;;;;;20.32;61.72;97016.53;10418433;28;20554;-46
2022/07/15 01:51:29;;;;;;;1.40;1.30;;;;;;;20.32;61.59;97016.53;10423957;28;20053;-46
2022/07/15 01:56:49;;;;;;;1.45;1.35;;;;;;;20.32;61.54;97019.22;10421597;28;20496;-47
2022/07/15 02:02:09;;;;;;;1.80;1.70;;;;;;;20.31;61.54;97023.06;10415373;28;20061;-48
2022/07/15 02:07:29;;;;;;;2.00;1.45;;;;;;;20.32;61.50;97023.84;10406419;28;20049;-46
2022/07/15 02:12:49;;;;;;;1.90;1.27;;;;;;;20.30;61.54;97018.78;10438583;28;20053;-46
2022/07/15 02:18:13;;;;;;;1.60;1.50;;;;;;;20.30;61.47;97028.81;10406491;28;20076;-46
2022/07/15 02:23:32;;;;;;;1.58;1.17;;;;;;;20.31;61.28;97042.00;10400933;28;20057;-47
2022/07/15 02:28:52;;;;;;;1.40;1.30;;;;;;;20.30;61.30;97045.03;10403769;28;20180;-47
2022/07/15 02:34:11;;;;;;;2.08;1.33;;;;;;;20.30;61.22;97053.94;10424945;28;20084;-47
2022/07/15 02:39:32;;;;;;;1.75;1.42;;;;;;;20.31;61.28;97057.47;10415744;28;20060;-47
2022/07/15 02:44:51;;;;;;;1.45;1.35;;;;;;;20.29;61.27;97067.81;10430324;28;20057;-45
2022/07/15 02:50:11;;;;;;;1.42;1.33;;;;;;;20.29;61.12;97079.41;10402606;28;20054;-46
2022/07/15 02:55:31;;;;;;;1.42;1.20;;;;;;;20.29;61.04;97084.84;10402183;28;20057;-47
2022/07/15 03:00:51;;;;;;;1.63;1.25;;;;;;;20.28;61.18;97087.84;10412823;28;20084;-47
2022/07/15 03:06:11;;;;;;;1.27;1.17;;;;;;;20.29;61.10;97094.88;10401609;28;20054;-46
2022/07/15 03:11:31;;;;;;;1.27;1.17;;;;;;;20.28;61.00;97104.09;10416682;28;20069;-47
2022/07/15 03:16:51;;;;;;;1.40;1.30;;;;;;;20.28;60.94;97104.09;10401138;28;20196;-47
2022/07/15 03:22:10;;;;;;;1.15;1.15;;;;;;;20.28;61.00;97121.09;10389570;28;20065;-48
2022/07/15 03:27:30;;;;;;;1.42;1.15;;;;;;;20.27;60.89;97119.53;10388849;28;20067;-45
2022/07/15 03:32:50;;;;;;;1.10;1.10;;;;;;;20.27;60.76;97130.34;10400429;28;20054;-46
2022/07/15 03:38:12;;;;;;;1.17;1.08;;;;;;;20.27;60.79;97138.47;10400279;28;20049;-47
2022/07/15 03:43:31;;;;;;;1.35;1.27;;;;;;;20.28;60.82;97131.13;10406809;28;20049;-46
2022/07/15 03:48:53;;;;;;;1.25;1.15;;;;;;;20.27;60.73;97152.00;10401238;28;20049;-46
2022/07/15 03:54:14;;;;;;;1.20;1.10;;;;;;;20.26;60.66;97153.09;10399811;28;20053;-46
2022/07/15 03:59:36;;;;;;;1.45;1.23;;;;;;;20.27;60.52;97157.41;10400091;28;20527;-46
2022/07/15 04:04:56;;;;;;;1.33;1.20;;;;;;;20.27;60.13;97167.44;10399530;28;20168;-48
2022/07/15 04:10:17;;;;;;;1.95;1.00;;;;;;;19.72;52.53;97163.44;10385237;28;20057;-48
2022/07/15 04:15:37;;;;;;;4.38;1.10;;;;;;;18.79;52.57;97170.53;10398309;28;20524;-48
2022/07/15 04:20:57;;;;;;;2.30;0.88;;;;;;;19.05;55.02;97181.50;10397312;28;20455;-47
2022/07/15 04:26:18;;;;;;;1.52;0.85;;;;;;;19.46;55.71;97183.06;10412067;28;20064;-48
2022/07/15 04:31:37;;;;;;;2.53;1.00;;;;;;;19.71;55.86;97191.53;10425628;28;20053;-46
2022/07/15 04:37:05;;;;;;;1.25;0.70;;;;;;;19.87;55.54;97191.91;10410433;28;20528;-48
2022/07/15 04:42:25;;;;;;;3.58;1.00;;;;;;;19.97;55.50;97196.22;10416276;28;20053;-46
2022/07/15 04:47:45;;;;;;;0.80;0.80;;;;;;;20.01;56.02;97208.78;10451909;28;20060;-48
2022/07/15 04:53:09;;;;;;;0.80;0.80;;;;;;;20.06;56.56;97211.34;10409126;28;20057;-47
2022/07/15 04:58:30;;;;;;;1.20;1.00;;;;;;;20.10;56.89;97216.91;10409691;28;20064;-46
2022/07/15 05:03:49;;;;;;;2.35;0.80;;;;;;;20.11;56.93;97221.19;10426211;28;20413;-47
2022/07/15 05:09:12;;;;;;;3.75;1.00;;;;;;;20.04;53.56;97227.09;10397892;28;20053;-46
2022/07/15 05:14:31;;;;;;;5.25;1.13;;;;;;;19.87;51.05;97221.66;10387236;28;20108;-47
2022/07/15 05:19:52;;;;;;;1.83;0.82;;;;;;;19.80;51.78;97229.44;10410465;28;20060;-50
2022/07/15 05:25:16;;;;;;;2.55;0.90;;;;;;;19.86;53.58;97228.19;10413964;28;20064;-46
2022/07/15 05:30:37;;;;;;;2.00;1.00;;;;;;;19.93;54.63;97233.91;10384976;28;20053;-46
2022/07/15 05:35:56;;;;;;;2.78;1.33;;;;;;;19.97;55.38;97229.47;10418280;28;20056;-46
2022/07/15 05:41:22;;;;;;;3.15;1.20;;;;;;;20.01;55.88;97243.94;10413080;28;20057;-48
2022/07/15 05:46:43;;;;;;;3.00;1.40;;;;;;;20.03;56.19;97246.34;10404511;28;20057;-48
2022/07/15 05:52:04;;;;;;;2.75;1.38;;;;;;;20.05;56.48;97260.34;10417792;28;20464;-46
2022/07/15 05:57:24;;;;;;;3.78;1.60;;;;;;;20.05;56.85;97247.63;10409991;28;20053;-47
2022/07/15 06:02:44;;;;;;;4.72;1.73;;;;;;;20.07;56.93;97261.63;10412684;28;20493;-46
2022/07/15 06:08:12;;;;;;;5.50;1.85;;;;;;;20.09;57.10;97264.00;10403704;28;20053;-48
2022/07/15 06:13:35;;;;;;;4.93;2.13;;;;;;;20.08;57.30;97268.63;10372886;28;20053;-48
2022/07/15 06:18:56;;;;;;;5.00;2.17;;;;;;;20.09;57.51;97274.81;10393636;28;20069;-47
2022/07/15 06:30:21;;;;;;;3.25;1.30;;;;;;;20.09;57.06;97286.44;10951258;23;20052;-55
2022/07/15 06:35:41;;;;;;;2.15;1.10;;;;;;;20.09;56.88;97275.63;10187992;29;20067;-56
2022/07/15 06:41:01;;;;;;;1.85;1.10;;;;;;;20.09;57.19;97280.22;10162980;29;20063;-55
2022/07/15 06:46:21;;;;;;;1.13;0.90;;;;;;;20.09;57.01;97286.44;10175142;29;20048;-55
2022/07/15 06:51:41;;;;;;;1.98;1.20;;;;;;;20.09;57.01;97285.63;10188174;29;20056;-56
2022/07/15 06:57:01;;;;;;;3.10;1.13;;;;;;;20.08;57.00;97292.16;10175404;29;20060;-56
2022/07/15 07:02:21;;;;;;;2.08;1.20;;;;;;;20.09;57.14;97293.75;10175575;29;20067;-55
2022/07/15 07:07:40;;;;;;;5.75;1.20;;;;;;;20.08;56.64;97294.88;10175357;29;20060;-52
2022/07/15 07:13:00;;;;;;;2.75;0.95;;;;;;;20.07;54.95;97301.38;10161783;29;20056;-57
2022/07/15 07:18:19;;;;;;;2.75;0.80;;;;;;;19.96;51.38;97298.19;10175813;29;20068;-56
2022/07/15 07:23:39;;;;;;;3.55;0.93;;;;;;;19.86;50.72;97310.09;10175544;29;20064;-57
2022/07/15 07:28:59;;;;;;;1.70;0.82;;;;;;;19.82;50.40;97298.31;10163391;29;20070;-57
2022/07/15 07:34:18;;;;;;;3.70;0.80;;;;;;;19.78;50.12;97294.66;10175393;29;20067;-57
2022/07/15 07:39:38;;;;;;;2.78;1.00;;;;;;;19.76;50.82;97299.56;10171047;29;20064;-57
2022/07/15 07:44:59;;;;;;;2.83;0.70;;;;;;;19.83;51.90;97299.91;10186173;29;20510;-56
2022/07/15 07:50:18;;;;;;;2.15;0.98;;;;;;;19.90;52.12;97305.66;10171102;29;20056;-56
2022/07/15 07:55:38;;;;;;;1.55;0.60;;;;;;;19.92;52.24;97299.94;10174184;29;20052;-57
2022/07/15 08:00:57;;;;;;;1.58;0.90;;;;;;;19.94;53.17;97293.09;10174305;29;20056;-57
2022/07/15 08:06:17;;;;;;;1.60;0.80;;;;;;;19.96;53.46;97303.59;10173287;29;20059;-56
2022/07/15 08:11:36;;;;;;;1.73;0.95;;;;;;;19.98;53.99;97306.00;10173360;29;20052;-57
2022/07/15 08:16:56;;;;;;;3.22;0.80;;;;;;;19.99;53.96;97291.34;10186239;29;20496;-56
2022/07/15 08:22:16;;;;;;;2.67;1.00;;;;;;;19.99;54.06;97297.53;10173259;29;20056;-51
2022/07/15 08:27:36;;;;;;;2.22;0.80;;;;;;;20.00;54.26;97298.38;10170515;29;20135;-54
2022/07/15 08:32:57;;;;;;;0.93;0.75;;;;;;;20.02;54.53;97296.13;10185609;29;20400;-56
2022/07/15 08:38:16;;;;;;;6.57;0.95;;;;;;;19.99;52.95;97286.72;10173491;29;20056;-57
2022/07/15 08:43:36;;;;;;;2.97;0.90;;;;;;;19.98;52.96;97290.56;10172667;29;20053;-57
2022/07/15 08:49:12;;;;;;;1.60;0.95;;;;;;;19.95;52.45;97286.59;10172950;29;20056;-57
2022/07/15 08:54:32;;;;;;;2.85;0.90;;;;;;;19.97;52.78;97288.16;10172639;29;20059;-56
2022/07/15 08:59:52;;;;;;;3.72;0.90;;;;;;;19.98;52.32;97287.84;10151715;29;20064;-56
2022/07/15 09:05:30;;;;;;;2.88;0.95;;;;;;;19.97;52.09;97294.34;10185081;29;20052;-57
2022/07/15 09:10:51;;;;;;;2.80;1.08;;;;;;;19.97;52.50;97294.34;10172615;29;20108;-57
2022/07/15 09:16:19;;;;;;;3.45;1.00;;;;;;;19.97;53.33;97298.97;10164736;29;20067;-57
2022/07/15 09:21:42;;;;;;;3.05;1.00;;;;;;;19.99;53.88;97307.56;10180131;29;20067;-57
2022/07/15 09:27:26;;;;;;;2.03;1.00;;;;;;;19.98;53.79;97298.66;10192149;29;20048;-57
2022/07/15 09:33:47;;;;;;;2.58;1.38;;;;;;;19.99;53.80;97292.13;10169058;29;20060;-56
2022/07/15 09:38:48;;;;;;;5.35;1.30;;;;;;;19.99;54.09;97284.03;10176202;29;20056;-56
2022/07/15 09:44:18;;;;;;;2.88;1.67;;;;;;;20.00;54.13;97301.06;10179002;29;20131;-56
2022/07/15 09:49:38;;;;;;;1.88;1.20;;;;;;;19.99;54.33;97292.13;10178771;29;20060;-57
2022/07/15 09:54:58;;;;;;;3.28;1.42;;;;;;;20.00;53.80;97301.84;10177764;29;20096;-57
2022/07/15 10:00:18;;;;;;;2.03;1.30;;;;;;;20.01;53.99;97294.53;10203083;29;20433;-57
2022/07/15 10:05:39;;;;;;;1.98;1.30;;;;;;;20.00;53.55;97295.66;10178573;29;20056;-57
2022/07/15 10:10:58;;;;;;;2.13;1.30;;;;;;;20.00;53.95;97292.97;10190830;29;20448;-57
2022/07/15 10:16:34;;;;;;;2.38;1.30;;;;;;;19.99;54.17;97292.13;10168035;29;20048;-57
2022/07/15 10:22:24;;;;;;;2.65;1.30;;;;;;;20.00;54.13;97285.63;10176929;29;20059;-57
2022/07/15 10:28:05;;;;;;;3.05;1.27;;;;;;;20.00;54.41;97288.34;10171083;29;20059;-56
2022/07/15 10:33:24;;;;;;;3.83;1.30;;;;;;;20.00;54.58;97282.13;10177435;29;20060;-56
2022/07/15 10:39:00;;;;;;;2.22;1.40;;;;;;;20.00;54.73;97274.81;10177240;29;20060;-57
2022/07/15 10:44:20;;;;;;;2.63;1.30;;;;;;;20.02;54.78;97275.28;10188517;29;20115;-56
2022/07/15 10:49:44;;;;;;;1.35;1.20;;;;;;;20.01;54.88;97270.97;10176952;29;20068;-57
2022/07/15 10:55:05;;;;;;;3.60;1.30;;;;;;;20.02;54.97;97263.69;10176489;29;20052;-57
2022/07/15 11:00:28;;;;;;;3.90;1.27;;;;;;;20.02;55.02;97263.69;10176627;29;20083;-56
2022/07/15 11:05:48;;;;;;;2.53;1.38;;;;;;;20.01;55.03;97260.16;10176261;29;20059;-57
2022/07/15 11:11:14;;;;;;;3.67;1.65;;;;;;;20.01;55.18;97267.50;10176082;29;20064;-57
2022/07/15 11:16:34;;;;;;;2.03;1.10;;;;;;;20.01;55.18;97270.19;10175446;29;20519;-57
2022/07/15 11:21:54;;;;;;;2.30;1.23;;;;;;;20.01;55.10;97262.88;10175496;29;20063;-55
2022/07/15 11:27:14;;;;;;;2.35;1.38;;;;;;;20.01;55.15;97268.28;10174206;29;20559;-56
2022/07/15 11:32:33;;;;;;;2.10;1.33;;;;;;;20.02;55.20;97260.97;10164313;29;20071;-56
2022/07/15 11:37:58;;;;;;;1.63;1.40;;;;;;;20.02;55.14;97244.75;10187526;29;20044;-57
2022/07/15 11:48:58;;;;;;;1.48;1.25;;;;;;;20.02;55.33;97252.88;10174824;29;20067;-57
2022/07/15 11:54:18;;;;;;;3.20;1.70;;;;;;;20.03;55.18;97244.44;10174429;29;20052;-56
2022/07/15 11:59:38;;;;;;;2.20;1.15;;;;;;;20.03;55.19;97246.34;10173496;29;20063;-56
2022/07/15 12:05:02;;;;;;;2.85;1.20;;;;;;;20.02;55.25;97242.06;10186636;29;20111;-56
2022/07/15 12:10:33;;;;;;;2.03;1.23;;;;;;;20.02;55.17;97242.06;10174101;29;20056;-57
2022/07/15 12:15:53;;;;;;;1.63;1.23;;;;;;;20.02;55.18;97239.34;10173245;29;20526;-56
2022/07/15 12:21:12;;;;;;;2.63;1.40;;;;;;;20.03;55.01;97240.91;10158936;29;20064;-56
2022/07/15 12:26:33;;;;;;;3.60;1.30;;;;;;;20.04;54.92;97245.22;10173244;29;20063;-57
2022/07/15 12:32:04;;;;;;;1.63;1.50;;;;;;;20.03;54.93;97233.63;10162380;29;20070;-57
2022/07/15 12:37:27;;;;;;;1.55;1.20;;;;;;;20.05;54.90;97238.69;10167743;29;20060;-55
2022/07/15 12:42:49;;;;;;;2.47;1.27;;;;;;;20.05;55.24;97230.59;10172952;29;20052;-56
2022/07/15 12:48:14;;;;;;;2.10;1.27;;;;;;;20.05;55.33;97231.41;10173116;29;20063;-57
2022/07/15 12:53:37;;;;;;;1.48;1.20;;;;;;;20.06;55.37;97234.91;10173096;29;20056;-56
2022/07/15 12:58:56;;;;;;;1.77;1.25;;;;;;;20.05;55.38;97241.41;10180418;29;20496;-57
2022/07/15 13:04:16;;;;;;;1.45;1.10;;;;;;;20.05;55.41;97236.00;10193080;29;20067;-56
2022/07/15 13:09:35;;;;;;;2.45;1.20;;;;;;;20.05;55.40;97231.41;10169439;29;20055;-57
2022/07/15 13:14:54;;;;;;;1.58;1.20;;;;;;;20.05;55.34;97228.69;10193063;29;20063;-57
2022/07/15 13:20:13;;;;;;;1.23;1.13;;;;;;;20.06;55.20;97219.47;10180217;29;20049;-56
2022/07/15 13:25:36;;;;;;;1.70;1.20;;;;;;;20.07;55.23;97217.53;10178965;29;20056;-56
2022/07/15 13:30:55;;;;;;;1.30;1.13;;;;;;;20.07;55.09;97218.34;10176355;29;20064;-55
2022/07/15 13:36:14;;;;;;;1.25;1.10;;;;;;;20.07;54.93;97215.66;10176871;29;20063;-56
2022/07/15 13:41:33;;;;;;;2.40;1.23;;;;;;;20.10;55.02;97216.91;10179588;29;20410;-56
2022/07/15 13:46:52;;;;;;;2.13;1.38;;;;;;;20.09;55.07;97218.00;10178678;29;20056;-57
2022/07/15 13:52:11;;;;;;;1.30;1.20;;;;;;;20.08;54.95;97213.75;10179078;29;20111;-56
2022/07/15 13:57:31;;;;;;;1.65;1.23;;;;;;;20.09;55.04;97209.91;10191317;29;20139;-56
2022/07/15 14:02:52;;;;;;;1.40;1.10;;;;;;;20.10;55.07;97211.50;10177331;29;20056;-56
2022/07/15 14:08:12;;;;;;;1.25;1.13;;;;;;;20.10;55.12;97206.09;10168502;29;20097;-55
2022/07/15 14:13:31;;;;;;;1.35;1.20;;;;;;;20.13;54.99;97208.16;10178230;29;20056;-56
2022/07/15 14:18:51;;;;;;;1.95;1.10;;;;;;;20.17;54.99;97209.13;10178088;29;20060;-57
2022/07/15 14:24:10;;;;;;;1.27;1.02;;;;;;;20.20;54.94;97219.31;10166238;29;20059;-57
2022/07/15 14:29:29;;;;;;;3.22;2.15;;;;;;;20.23;55.16;97221.38;10177692;29;20079;-56
2022/07/15 14:34:49;;;;;;;4.00;2.45;;;;;;;20.24;55.46;97212.13;10177090;29;20060;-56
2022/07/15 14:40:08;;;;;;;3.28;2.08;;;;;;;20.25;55.60;97199.44;10177941;29;20064;-56
2022/07/15 14:45:28;;;;;;;2.80;2.10;;;;;;;20.29;55.33;97201.16;10189460;29;20040;-56
2022/07/15 14:50:48;;;;;;;3.03;1.65;;;;;;;20.28;55.19;97199.56;10189792;29;20056;-56
2022/07/15 14:56:07;;;;;;;3.67;1.92;;;;;;;20.30;54.94;97193.84;10176810;29;20060;-56
2022/07/15 15:01:28;;;;;;;1.75;1.65;;;;;;;20.32;54.48;97186.97;10184345;29;20504;-57
2022/07/15 15:06:47;;;;;;;4.60;1.50;;;;;;;20.33;54.06;97193.22;10175515;29;20500;-54
2022/07/15 15:12:07;;;;;;;3.65;1.50;;;;;;;20.33;53.71;97194.00;10170824;29;20051;-56
2022/07/15 15:17:26;;;;;;;2.38;1.40;;;;;;;20.33;53.60;97187.81;10175696;29;20115;-56
2022/07/15 15:22:46;;;;;;;2.00;1.40;;;;;;;20.33;53.11;97185.88;10175738;29;20060;-56
2022/07/15 15:28:05;;;;;;;2.28;1.35;;;;;;;20.37;53.13;97194.16;10175214;29;20068;-57
2022/07/15 15:33:25;;;;;;;1.35;1.17;;;;;;;20.38;52.88;97190.31;10178349;29;20103;-56
2022/07/15 15:38:45;;;;;;;1.98;1.40;;;;;;;20.41;52.56;97187.00;10187129;29;20508;-57
2022/07/15 15:44:04;;;;;;;1.35;1.20;;;;;;;20.42;52.26;97180.44;10172838;29;20091;-56
2022/07/15 15:49:24;;;;;;;1.58;1.38;;;;;;;20.45;51.55;97190.66;10174835;29;20067;-56
2022/07/15 15:54:43;;;;;;;1.95;1.20;;;;;;;20.47;51.18;97177.59;10174499;29;20119;-56
2022/07/15 16:00:05;;;;;;;2.45;1.30;;;;;;;20.51;50.78;97177.75;10187631;29;20083;-56
2022/07/15 16:05:31;;;;;;;1.67;1.20;;;;;;;20.51;50.72;97162.28;10174067;29;20111;-57
2022/07/15 16:10:51;;;;;;;1.83;1.00;;;;;;;20.54;50.34;97160.84;10174699;29;20071;-56
2022/07/15 16:16:10;;;;;;;1.35;1.00;;;;;;;20.57;50.09;97159.44;10173769;29;20067;-56
2022/07/15 16:27:08;;;;;;;1.85;1.10;;;;;;;20.59;49.82;97174.25;10185487;29;20060;-57
2022/07/15 16:32:27;;;;;;;1.75;1.15;;;;;;;20.58;49.86;97169.13;10173378;29;20068;-57
2022/07/15 16:37:50;;;;;;;3.00;1.40;;;;;;;20.57;49.89;97175.66;10173311;29;20060;-56
2022/07/15 16:43:10;;;;;;;1.88;1.20;;;;;;;20.57;49.72;97162.94;10173065;29;20067;-56
2022/07/15 16:48:29;;;;;;;1.98;1.20;;;;;;;20.60;49.70;97153.38;10181539;29;20066;-56
2022/07/15 16:53:48;;;;;;;1.60;1.20;;;;;;;20.61;49.56;97158.50;10192276;29;20059;-56
2022/07/15 16:59:08;;;;;;;2.25;1.13;;;;;;;20.64;49.55;97160.56;10192391;29;20064;-57
2022/07/15 17:04:27;;;;;;;2.80;1.10;;;;;;;20.65;49.49;97156.72;10172395;29;20063;-57
2022/07/15 17:09:47;;;;;;;1.58;1.33;;;;;;;20.62;49.58;97151.97;10161895;29;20063;-57
2022/07/15 17:15:06;;;;;;;1.48;1.10;;;;;;;20.61;49.59;97155.00;10184858;29;20412;-56
2022/07/15 17:20:26;;;;;;;1.15;1.05;;;;;;;20.61;49.57;97165.81;10172450;29;20064;-57
2022/07/15 17:25:45;;;;;;;2.63;1.23;;;;;;;20.59;49.59;97158.00;10172232;29;20052;-57
2022/07/15 17:31:06;;;;;;;1.63;1.20;;;;;;;20.56;49.80;97158.63;10167288;29;20065;-56
2022/07/15 17:36:25;;;;;;;1.83;1.25;;;;;;;20.56;49.81;97155.91;10168653;29;20063;-56
2022/07/15 17:41:45;;;;;;;2.40;1.02;;;;;;;20.54;50.21;97156.25;10178994;29;20516;-57
2022/07/15 17:47:04;;;;;;;1.80;1.20;;;;;;;20.52;50.47;97152.25;10172076;29;20104;-57
2022/07/15 17:52:23;;;;;;;1.33;1.10;;;;;;;20.50;50.92;97149.06;10179148;29;20072;-56
2022/07/15 17:57:43;;;;;;;1.63;1.20;;;;;;;20.49;51.13;97142.09;10184003;29;20092;-57
2022/07/15 18:03:02;;;;;;;1.90;1.15;;;;;;;20.48;51.45;97152.13;10191413;29;20064;-56
2022/07/15 18:08:21;;;;;;;1.30;1.17;;;;;;;20.47;51.46;97155.16;10190874;29;20056;-57
2022/07/15 18:13:40;;;;;;;2.45;1.50;;;;;;;20.47;51.53;97155.16;10178165;29;20111;-57
2022/07/15 18:19:00;;;;;;;1.33;1.20;;;;;;;20.44;51.00;97144.97;10190198;29;20751;-57
2022/07/15 18:24:19;;;;;;;3.20;1.50;;;;;;;20.42;50.33;97145.28;10203142;29;20052;-56
2022/07/15 18:29:38;;;;;;;3.40;1.77;;;;;;;20.42;50.19;97155.31;10195027;29;20068;-57
2022/07/15 18:34:58;;;;;;;2.45;1.60;;;;;;;20.40;49.87;97149.44;10179769;29;20048;-57
2022/07/15 18:40:19;;;;;;;2.42;1.27;;;;;;;20.39;49.90;97154.06;10177143;29;20056;-57
2022/07/15 18:45:38;;;;;;;1.70;1.23;;;;;;;20.37;49.85;97155.50;10188938;29;20063;-57
2022/07/15 18:50:58;;;;;;;1.48;1.20;;;;;;;20.35;49.59;97158.50;10176474;29;20060;-57
2022/07/15 18:56:17;;;;;;;2.15;1.25;;;;;;;20.33;49.61;97166.94;10180843;29;20052;-57
2022/07/15 19:01:37;;;;;;;1.50;1.30;;;;;;;20.31;49.42;97165.69;10176909;29;20090;-57
2022/07/15 19:06:56;;;;;;;2.53;1.48;;;;;;;20.29;49.20;97168.69;10174745;29;20100;-57
2022/07/15 19:12:16;;;;;;;2.05;1.40;;;;;;;20.28;49.16;97174.44;10176002;29;20056;-56
2022/07/15 19:17:35;;;;;;;2.40;1.33;;;;;;;20.25;49.01;97175.09;10176061;29;20063;-56
2022/07/15 19:22:54;;;;;;;1.85;1.58;;;;;;;20.22;48.64;97184.59;10175072;29;20508;-56
2022/07/15 19:28:13;;;;;;;2.25;1.52;;;;;;;20.19;48.58;97190.69;10173295;29;20121;-53
2022/07/15 19:33:34;;;;;;;2.33;1.48;;;;;;;20.18;48.77;97191.00;10179051;29;20052;-56
2022/07/15 19:38:53;;;;;;;2.55;1.50;;;;;;;20.15;48.41;97189.72;10181481;29;20416;-56
2022/07/15 19:44:12;;;;;;;1.95;1.30;;;;;;;20.12;48.32;97201.16;10185237;29;20408;-56
2022/07/15 19:49:31;;;;;;;2.30;1.33;;;;;;;20.09;48.16;97208.00;10199712;29;20056;-56
2022/07/15 19:54:51;;;;;;;1.33;1.20;;;;;;;20.08;48.19;97200.22;10174483;29;20063;-56
2022/07/15 20:00:17;;;;;;;2.00;1.38;;;;;;;20.05;47.90;97207.06;10173745;29;20064;-56
2022/07/15 20:05:36;;;;;;;2.55;1.50;;;;;;;20.04;48.01;97207.38;10173609;29;20087;-56
2022/07/15 20:10:56;;;;;;;1.92;1.73;;;;;;;20.03;48.29;97203.06;10173466;29;20060;-55
2022/07/15 20:16:15;;;;;;;2.17;1.35;;;;;;;20.05;48.29;97208.94;10174150;29;20060;-55
2022/07/15 20:21:37;;;;;;;1.70;1.25;;;;;;;20.06;48.26;97205.16;10174093;29;20052;-54
2022/07/15 20:26:56;;;;;;;2.25;1.30;;;;;;;20.06;48.55;97197.03;10159530;29;20408;-56
2022/07/15 20:32:16;;;;;;;3.60;1.60;;;;;;;20.05;48.42;97198.94;10173397;29;20421;-56
2022/07/15 20:37:36;;;;;;;1.98;1.52;;;;;;;20.06;48.41;97199.75;10173542;29;20420;-56
2022/07/15 20:42:55;;;;;;;5.15;2.10;;;;;;;20.03;47.96;97206.59;10173175;29;20064;-56
2022/07/15 20:48:16;;;;;;;2.92;2.10;;;;;;;20.02;47.94;97213.09;10172922;29;20064;-56
2022/07/15 20:53:35;;;;;;;7.35;4.63;;;;;;;20.00;47.78;97206.41;10162731;29;20116;-55
2022/07/15 20:58:55;;;;;;;4.63;3.80;;;;;;;19.99;47.74;97212.94;10172471;29;20052;-56
2022/07/15 21:04:14;;;;;;;3.53;2.58;;;;;;;19.99;47.44;97221.03;10172898;29;20060;-56
2022/07/15 21:09:34;;;;;;;4.07;2.70;;;;;;;19.99;47.32;97221.03;10172592;29;20348;-56
2022/07/15 21:14:53;;;;;;;3.20;2.00;;;;;;;19.97;47.31;97217.84;10178995;29;20052;-53
2022/07/15 21:20:12;;;;;;;3.20;1.90;;;;;;;19.96;47.25;97222.47;10180223;29;20064;-56
2022/07/15 21:31:10;;;;;;;4.83;1.80;;;;;;;19.94;46.96;97222.00;10168288;29;20068;-56
2022/07/15 21:36:30;;;;;;;2.72;1.90;;;;;;;19.92;46.97;97222.31;10176944;29;20067;-56
2022/07/15 21:41:50;;;;;;;2.50;1.80;;;;;;;19.91;46.96;97228.81;10191484;29;20515;-56
2022/07/15 21:47:09;;;;;;;2.70;1.75;;;;;;;19.91;46.97;97219.91;10182190;29;20048;-56
2022/07/15 21:52:31;;;;;;;4.05;1.50;;;;;;;19.89;47.11;97225.63;10179118;29;20056;-56
2022/07/15 21:57:50;;;;;;;2.63;1.50;;;;;;;19.88;47.17;97221.34;10191793;29;20086;-57
2022/07/15 22:03:12;;;;;;;2.15;1.50;;;;;;;19.89;47.43;97235.66;10178755;29;20119;-56
2022/07/15 22:08:31;;;;;;;2.83;1.80;;;;;;;19.87;47.20;97240.59;10178475;29;20078;-56
2022/07/15 22:13:51;;;;;;;5.40;1.63;;;;;;;19.87;46.97;97246.00;10203788;29;20083;-57
2022/07/15 22:19:10;;;;;;;2.25;1.40;;;;;;;19.83;47.07;97240.41;10177984;29;20064;-56
2022/07/15 22:24:29;;;;;;;2.42;1.42;;;;;;;19.81;46.96;97239.16;10171924;29;20055;-56
2022/07/15 22:29:49;;;;;;;1.60;1.45;;;;;;;19.79;47.03;97239.44;10177553;29;20063;-57
2022/07/15 22:35:08;;;;;;;2.85;1.38;;;;;;;19.78;46.97;97237.88;10165607;29;20063;-56
2022/07/15 22:40:27;;;;;;;2.67;1.60;;;;;;;19.77;46.79;97236.28;10165310;29;20128;-56
2022/07/15 22:45:47;;;;;;;2.63;1.38;;;;;;;19.75;46.93;97244.69;10177248;29;20052;-56
2022/07/15 22:51:06;;;;;;;2.03;1.33;;;;;;;19.75;46.77;97241.19;10177247;29;20060;-56
2022/07/15 22:56:25;;;;;;;2.65;1.50;;;;;;;19.74;46.91;97245.81;10175982;29;20056;-56
2022/07/15 23:01:45;;;;;;;3.20;1.40;;;;;;;19.72;46.78;97247.25;10176602;29;20056;-56
2022/07/15 23:07:04;;;;;;;2.75;1.50;;;;;;;19.71;46.76;97254.53;10176149;29;20048;-55
2022/07/15 23:12:24;;;;;;;1.55;1.35;;;;;;;19.70;46.80;97254.84;10176190;29;20056;-55
2022/07/15 23:17:43;;;;;;;2.58;1.40;;;;;;;19.70;46.86;97252.13;10164402;29;20052;-56
2022/07/15 23:23:03;;;;;;;3.13;1.38;;;;;;;19.69;46.96;97247.81;10175631;29;20060;-56
2022/07/15 23:28:23;;;;;;;2.00;1.30;;;;;;;19.68;47.06;97246.22;10195646;29;20380;-56
2022/07/15 23:33:42;;;;;;;1.40;1.30;;;;;;;19.69;46.96;97245.13;10184564;29;20059;-56
2022/07/15 23:39:02;;;;;;;1.90;1.30;;;;;;;19.66;46.77;97245.75;10173020;29;20064;-56
2022/07/15 23:44:21;;;;;;;2.75;1.70;;;;;;;19.64;46.77;97240.66;10187611;29;20059;-56
2022/07/15 23:49:40;;;;;;;1.48;1.10;;;;;;;19.64;46.93;97239.84;10175062;29;20076;-56
2022/07/15 23:55:00;;;;;;;1.98;1.30;;;;;;;19.65;47.17;97238.75;10174755;29;20088;-57
